Time;durP1;ratioP1;P1;durP2;ratioP2;P2;SDS_P1;SDS_P2;PMS_P1;PMS_P2;Temp;Humidity;BMP_temperature;BMP_pressure;BME280_temperature;BME280_humidity;BME280_pressure;Samples;Min_cycle;Max_cycle;Signal;HPM_P1;HPM_P2
2021/05/12 00:01:55;;;;;;;;;;;;;;;11.49;73.81;92817.47;5110777;28;20412;-85
2021/05/12 00:04:21;;;;;;;;;;;;;;;11.52;73.44;92813.66;5110818;28;19919;-87
2021/05/12 00:06:47;;;;;;;;;;;;;;;11.58;72.67;92810.19;5110575;28;19920;-86
2021/05/12 00:09:13;;;;;;;;;;;;;;;11.60;72.69;92804.81;5110484;28;19938;-86
2021/05/12 00:11:40;;;;;;;;;;;;;;;11.62;73.06;92795.13;5110504;28;19927;-87
2021/05/12 00:14:06;;;;;;;;;;;;;;;11.63;72.26;92801.81;5110724;28;19976;-85
2021/05/12 00:16:32;;;;;;;;;;;;;;;11.68;72.07;92803.69;5110820;28;20255;-86
2021/05/12 00:18:59;;;;;;;;;;;;;;;11.68;72.46;92793.41;5110378;28;19985;-85
2021/05/12 00:21:29;;;;;;;;;;;;;;;11.69;72.36;92795.75;5110700;28;19927;-86
2021/05/12 00:23:59;;;;;;;;;;;;;;;11.65;72.56;92794.66;5110231;28;19919;-87
2021/05/12 00:26:27;;;;;;;;;;;;;;;11.59;73.12;92786.06;5110219;28;19935;-85
2021/05/12 00:28:53;;;;;;;;;;;;;;;11.57;72.68;92787.28;5110632;28;20060;-86
2021/05/12 00:31:20;;;;;;;;;;;;;;;11.53;72.91;92788.75;5110286;28;19927;-85
2021/05/12 00:33:46;;;;;;;;;;;;;;;11.46;73.25;92778.56;5110527;28;20344;-87
2021/05/12 00:36:12;;;;;;;;;;;;;;;11.51;73.04;92786.38;5110990;28;19931;-87
2021/05/12 00:38:38;;;;;;;;;;;;;;;11.56;72.78;92789.06;5110566;28;19924;-87
2021/05/12 00:41:04;;;;;;;;;;;;;;;11.55;73.46;92774.66;5110244;28;19919;-85
2021/05/12 00:43:31;;;;;;;;;;;;;;;11.50;73.06;92777.13;5109992;28;19930;-87
2021/05/12 00:45:57;;;;;;;;;;;;;;;11.49;73.54;92771.16;5110033;28;19926;-88
2021/05/12 00:48:24;;;;;;;;;;;;;;;11.47;73.91;92769.84;5110193;28;19920;-86
2021/05/12 00:50:50;;;;;;;;;;;;;;;11.45;74.31;92774.44;5110032;28;19965;-87
2021/05/12 00:53:16;;;;;;;;;;;;;;;11.42;75.10;92767.94;5110212;28;19927;-87
2021/05/12 00:55:42;;;;;;;;;;;;;;;11.38;75.29;92769.41;5109936;28;20382;-87
2021/05/12 00:58:27;;;;;;;;;;;;;;;11.29;75.00;92773.34;5113309;28;19926;-86
2021/05/12 01:00:53;;;;;;;;;;;;;;;11.30;74.36;92770.53;5116673;28;19920;-86
2021/05/12 01:03:19;;;;;;;;;;;;;;;11.21;74.71;92764.16;5117392;28;19924;-88
2021/05/12 01:06:03;;;;;;;;;;;;;;;11.13;75.26;92761.91;5117038;28;20290;-86
2021/05/12 01:08:30;;;;;;;;;;;;;;;11.08;75.83;92762.59;5116559;28;20386;-85
2021/05/12 01:10:56;;;;;;;;;;;;;;;11.05;75.58;92761.25;5117010;28;19924;-85
2021/05/12 01:13:24;;;;;;;;;;;;;;;11.02;75.85;92751.41;5116535;28;20405;-86
2021/05/12 01:15:50;;;;;;;;;;;;;;;10.93;76.55;92750.97;5116353;28;20393;-86
2021/05/12 01:18:17;;;;;;;;;;;;;;;10.91;76.45;92747.06;5116555;28;19920;-85
2021/05/12 01:20:51;;;;;;;;;;;;;;;10.86;76.86;92745.16;5116902;28;19920;-85
2021/05/12 01:23:19;;;;;;;;;;;;;;;10.87;76.89;92746.72;5116892;28;19926;-86
2021/05/12 01:25:45;;;;;;;;;;;;;;;10.77;76.93;92739.56;5117082;28;20312;-85
2021/05/12 01:28:11;;;;;;;;;;;;;;;10.82;76.48;92731.19;5117075;28;19920;-85
2021/05/12 01:30:37;;;;;;;;;;;;;;;10.83;76.80;92733.53;5116626;28;20393;-86
2021/05/12 01:33:03;;;;;;;;;;;;;;;10.86;76.59;92732.31;5116743;28;20294;-86
2021/05/12 01:35:30;;;;;;;;;;;;;;;10.81;77.79;92727.84;5116256;28;19927;-85
2021/05/12 01:37:57;;;;;;;;;;;;;;;10.77;77.60;92728.50;5116704;28;20268;-86
2021/05/12 01:40:23;;;;;;;;;;;;;;;10.77;77.89;92731.06;5116212;28;19920;-87
2021/05/12 01:42:49;;;;;;;;;;;;;;;10.73;77.90;92724.84;5116496;28;19948;-86
2021/05/12 01:45:15;;;;;;;;;;;;;;;10.71;78.56;92719.13;5116696;28;19923;-85
2021/05/12 01:47:42;;;;;;;;;;;;;;;10.65;78.05;92724.13;5116246;28;20316;-85
2021/05/12 01:50:10;;;;;;;;;;;;;;;10.67;78.52;92724.72;5115920;28;19923;-85
2021/05/12 01:52:40;;;;;;;;;;;;;;;10.62;77.71;92716.88;5116281;28;20423;-86
2021/05/12 01:55:08;;;;;;;;;;;;;;;10.62;77.94;92709.19;5116806;28;19924;-86
2021/05/12 01:57:34;;;;;;;;;;;;;;;10.67;77.75;92709.31;5116364;28;19920;-84
2021/05/12 02:00:00;;;;;;;;;;;;;;;10.68;78.20;92705.72;5116284;28;19919;-86
2021/05/12 02:02:26;;;;;;;;;;;;;;;10.63;78.22;92703.03;5116038;28;19924;-85
2021/05/12 02:04:52;;;;;;;;;;;;;;;10.60;78.71;92707.84;5116240;28;20286;-86
2021/05/12 02:07:18;;;;;;;;;;;;;;;10.38;80.45;92698.81;5116201;28;20366;-85
2021/05/12 02:09:48;;;;;;;;;;;;;;;10.34;80.66;92700.28;5113252;28;19931;-86
2021/05/12 02:12:15;;;;;;;;;;;;;;;10.36;80.16;92700.84;5113312;28;19919;-86
2021/05/12 02:14:41;;;;;;;;;;;;;;;10.36;80.25;92698.28;5112915;28;20394;-87
2021/05/12 02:17:07;;;;;;;;;;;;;;;10.39;79.92;92697.06;5112875;28;19923;-85
2021/05/12 02:19:33;;;;;;;;;;;;;;;10.41;80.31;92687.34;5113044;28;19919;-87
2021/05/12 02:21:59;;;;;;;;;;;;;;;10.42;80.13;92688.91;5113018;28;19920;-85
2021/05/12 02:24:25;;;;;;;;;;;;;;;10.39;80.58;92689.34;5112898;28;19927;-86
2021/05/12 02:26:51;;;;;;;;;;;;;;;10.40;80.29;92678.88;5112861;28;19965;-85
2021/05/12 02:29:18;;;;;;;;;;;;;;;10.36;80.89;92676.94;5112514;28;20328;-87
2021/05/12 02:31:44;;;;;;;;;;;;;;;10.31;80.11;92675.03;5112861;28;20283;-88
2021/05/12 02:34:10;;;;;;;;;;;;;;;10.33;80.35;92672.25;5112373;28;19919;-87
2021/05/12 02:36:36;;;;;;;;;;;;;;;10.36;79.49;92676.94;5112733;28;19930;-86
2021/05/12 02:39:03;;;;;;;;;;;;;;;10.32;79.60;92679.19;5112977;28;19924;-87
2021/05/12 02:41:29;;;;;;;;;;;;;;;10.21;80.30;92672.25;5112154;28;19926;-87
2021/05/12 02:43:55;;;;;;;;;;;;;;;10.16;80.50;92670.34;5112701;28;19920;-86
2021/05/12 02:46:22;;;;;;;;;;;;;;;10.09;81.28;92677.38;5112471;28;19985;-86
2021/05/12 02:48:48;;;;;;;;;;;;;;;9.97;82.21;92677.31;5112061;28;19927;-86
2021/05/12 02:51:14;;;;;;;;;;;;;;;9.96;82.08;92679.09;5111924;28;19924;-88
2021/05/12 02:53:40;;;;;;;;;;;;;;;9.96;81.49;92679.09;5112359;28;19927;-87
2021/05/12 02:56:06;;;;;;;;;;;;;;;9.97;82.16;92679.88;5111955;28;20373;-86
2021/05/12 02:58:32;;;;;;;;;;;;;;;10.00;82.34;92687.16;5112368;28;20412;-85
2021/05/12 03:00:58;;;;;;;;;;;;;;;9.92;83.07;92682.31;5112227;28;19920;-84
2021/05/12 03:03:25;;;;;;;;;;;;;;;9.92;82.45;92684.88;5112147;28;20298;-88
2021/05/12 03:05:51;;;;;;;;;;;;;;;9.95;82.28;92684.47;5111907;28;19923;-88
2021/05/12 03:08:17;;;;;;;;;;;;;;;9.97;81.85;92680.69;5111630;28;20002;-90
2021/05/12 03:10:43;;;;;;;;;;;;;;;9.97;81.67;92678.13;5111899;28;19927;-87
2021/05/12 03:13:10;;;;;;;;;;;;;;;10.05;81.56;92682.16;5111828;28;20301;-86
2021/05/12 03:15:37;;;;;;;;;;;;;;;10.09;80.23;92690.19;5111635;28;20415;-86
2021/05/12 03:18:03;;;;;;;;;;;;;;;10.08;80.64;92684.25;5111975;28;19923;-88
2021/05/12 03:20:30;;;;;;;;;;;;;;;10.02;81.11;92693.63;5112356;28;19919;-89
2021/05/12 03:22:57;;;;;;;;;;;;;;;10.02;80.76;92688.50;5111563;28;19927;-88
2021/05/12 03:25:24;;;;;;;;;;;;;;;10.01;80.40;92692.03;5111733;28;20014;-88
2021/05/12 03:27:50;;;;;;;;;;;;;;;10.02;80.51;92685.16;5111434;28;19920;-89
2021/05/12 03:30:19;;;;;;;;;;;;;;;10.04;80.99;92685.69;5111222;28;19919;-90
2021/05/12 03:32:45;;;;;;;;;;;;;;;10.01;80.99;92684.34;5111352;28;20312;-86
2021/05/12 03:35:12;;;;;;;;;;;;;;;9.97;81.24;92680.69;5111177;28;19924;-87
2021/05/12 03:37:39;;;;;;;;;;;;;;;10.00;81.22;92682.03;5111399;28;19926;-88
2021/05/12 03:40:06;;;;;;;;;;;;;;;9.96;82.48;92678.31;5111311;28;20305;-86
2021/05/12 03:42:32;;;;;;;;;;;;;;;9.90;83.50;92677.41;5111094;28;19930;-85
2021/05/12 03:44:59;;;;;;;;;;;;;;;9.93;82.70;92679.53;5111219;28;19919;-87
2021/05/12 03:47:25;;;;;;;;;;;;;;;9.94;83.42;92670.03;5111256;28;19927;-87
2021/05/12 03:50:04;;;;;;;;;;;;;;;9.98;84.13;92663.47;5110165;28;19923;-89
2021/05/12 03:52:30;;;;;;;;;;;;;;;10.00;84.21;92661.50;5112377;28;19976;-87
2021/05/12 03:54:57;;;;;;;;;;;;;;;10.01;83.45;92663.81;5111788;28;19924;-87
2021/05/12 03:57:23;;;;;;;;;;;;;;;10.16;82.40;92662.63;5111662;28;19919;-87
2021/05/12 03:59:49;;;;;;;;;;;;;;;10.28;83.23;92662.66;5111010;28;19923;-88
2021/05/12 04:02:15;;;;;;;;;;;;;;;10.45;81.69;92656.91;5110864;28;20366;-87
2021/05/12 04:04:42;;;;;;;;;;;;;;;10.57;80.68;92667.97;5111108;28;19920;-87
2021/05/12 04:07:08;;;;;;;;;;;;;;;10.63;80.87;92661.94;5110902;28;19965;-85
2021/05/12 04:09:34;;;;;;;;;;;;;;;10.71;80.91;92652.31;5110839;28;19923;-86
2021/05/12 04:12:01;;;;;;;;;;;;;;;10.76;80.05;92657.56;5111059;28;19926;-85
2021/05/12 04:14:27;;;;;;;;;;;;;;;10.85;79.97;92658.81;5110413;28;19928;-86
2021/05/12 04:16:53;;;;;;;;;;;;;;;10.92;80.08;92651.00;5110865;28;19920;-90
2021/05/12 04:19:19;;;;;;;;;;;;;;;11.03;80.21;92654.53;5110525;28;19919;-89
2021/05/12 04:21:45;;;;;;;;;;;;;;;11.15;79.43;92649.41;5110711;28;19930;-88
2021/05/12 04:24:12;;;;;;;;;;;;;;;11.31;78.72;92648.69;5110779;28;19919;-88
2021/05/12 04:26:38;;;;;;;;;;;;;;;11.50;78.59;92648.50;5110633;28;19981;-86
2021/05/12 04:29:06;;;;;;;;;;;;;;;11.68;77.13;92649.34;5110397;28;20174;-86
2021/05/12 04:31:32;;;;;;;;;;;;;;;11.87;75.86;92649.94;5110588;28;19975;-84
2021/05/12 04:33:58;;;;;;;;;;;;;;;12.10;74.92;92643.13;5109426;28;19919;-87
2021/05/12 04:36:24;;;;;;;;;;;;;;;12.29;73.89;92646.25;5110236;28;19920;-87
2021/05/12 04:38:51;;;;;;;;;;;;;;;12.54;73.52;92647.66;5110533;28;19984;-87
2021/05/12 04:41:18;;;;;;;;;;;;;;;12.68;73.47;92643.75;5110161;28;19920;-87
2021/05/12 04:43:44;;;;;;;;;;;;;;;12.78;75.96;92642.34;5109944;28;19958;-92
2021/05/12 04:46:11;;;;;;;;;;;;;;;12.91;73.52;92636.06;5110110;28;19927;-87
2021/05/12 04:48:37;;;;;;;;;;;;;;;13.07;72.72;92639.63;5110272;28;20048;-89
2021/05/12 04:51:03;;;;;;;;;;;;;;;13.16;74.49;92624.50;5110395;28;19920;-89
2021/05/12 04:53:30;;;;;;;;;;;;;;;13.25;71.90;92622.28;5110276;28;19919;-88
2021/05/12 04:55:56;;;;;;;;;;;;;;;13.35;72.07;92615.47;5109976;28;19930;-87
2021/05/12 04:58:22;;;;;;;;;;;;;;;13.43;72.29;92616.81;5110208;28;19919;-89
2021/05/12 05:00:48;;;;;;;;;;;;;;;13.45;71.92;92607.03;5110119;28;19919;-86
2021/05/12 05:03:15;;;;;;;;;;;;;;;13.47;72.88;92605.03;5110129;28;19924;-86
2021/05/12 05:05:41;;;;;;;;;;;;;;;13.58;73.75;92599.97;5109882;28;19924;-86
2021/05/12 05:08:07;;;;;;;;;;;;;;;13.55;74.08;92595.28;5110121;28;19927;-87
2021/05/12 05:10:34;;;;;;;;;;;;;;;13.89;72.22;92588.13;5110118;28;20363;-87
2021/05/12 05:13:00;;;;;;;;;;;;;;;14.24;69.54;92583.50;5107144;28;20500;-85
2021/05/12 05:15:26;;;;;;;;;;;;;;;14.53;70.72;92580.56;5107997;28;20879;-85
2021/05/12 05:17:52;;;;;;;;;;;;;;;14.77;68.81;92582.78;5108386;28;19931;-90
2021/05/12 05:20:21;;;;;;;;;;;;;;;15.02;68.40;92575.41;5109911;28;20287;-90
2021/05/12 05:22:47;;;;;;;;;;;;;;;15.25;67.40;92569.03;5109605;28;19923;-88
2021/05/12 05:25:14;;;;;;;;;;;;;;;15.48;67.05;92561.84;5109798;28;19924;-90
2021/05/12 05:27:40;;;;;;;;;;;;;;;15.68;66.94;92563.69;5109875;28;19920;-88
2021/05/12 05:30:09;;;;;;;;;;;;;;;15.88;66.73;92557.75;5109469;28;19931;-91
2021/05/12 05:32:35;;;;;;;;;;;;;;;16.11;65.59;92557.53;5109573;28;20313;-89
2021/05/12 05:35:01;;;;;;;;;;;;;;;16.25;65.56;92562.97;5109948;28;19942;-89
2021/05/12 05:37:28;;;;;;;;;;;;;;;16.48;66.21;92566.81;5111040;28;20295;-85
2021/05/12 05:39:55;;;;;;;;;;;;;;;16.67;66.00;92563.69;5109552;28;19920;-84
2021/05/12 05:42:21;;;;;;;;;;;;;;;16.88;64.73;92571.38;5109261;28;20306;-85
2021/05/12 05:44:48;;;;;;;;;;;;;;;17.04;64.10;92575.50;5111664;28;19923;-85
2021/05/12 05:47:14;;;;;;;;;;;;;;;17.27;64.47;92557.75;5113677;28;19945;-86
2021/05/12 05:49:40;;;;;;;;;;;;;;;17.48;63.42;92548.06;5113437;28;19924;-85
2021/05/12 05:52:07;;;;;;;;;;;;;;;17.63;62.65;92536.03;5112974;28;20034;-86
2021/05/12 05:54:34;;;;;;;;;;;;;;;17.82;62.20;92538.75;5113522;28;20340;-84
2021/05/12 05:57:04;;;;;;;;;;;;;;;18.06;61.55;92539.88;5113073;28;19920;-82
2021/05/12 05:59:31;;;;;;;;;;;;;;;18.28;60.70;92537.63;5113183;28;20375;-83
2021/05/12 06:01:57;;;;;;;;;;;;;;;18.54;60.19;92532.19;5108504;28;19920;-86
2021/05/12 06:04:24;;;;;;;;;;;;;;;18.79;59.24;92532.22;5111606;28;20424;-84
2021/05/12 06:06:50;;;;;;;;;;;;;;;19.08;58.56;92528.78;5113185;28;19919;-82
2021/05/12 06:09:16;;;;;;;;;;;;;;;19.42;57.28;92524.44;5113525;28;19924;-84
2021/05/12 06:11:43;;;;;;;;;;;;;;;19.66;55.19;92526.22;5112850;28;19924;-84
2021/05/12 06:14:09;;;;;;;;;;;;;;;19.81;54.15;92515.53;5112928;28;19923;-84
2021/05/12 06:16:35;;;;;;;;;;;;;;;20.01;53.48;92522.28;5112758;28;20370;-84
2021/05/12 06:19:01;;;;;;;;;;;;;;;20.30;52.72;92528.34;5112532;28;19919;-85
2021/05/12 06:21:27;;;;;;;;;;;;;;;20.63;51.36;92514.47;5112555;28;20387;-85
2021/05/12 06:23:53;;;;;;;;;;;;;;;20.82;51.20;92517.78;5112844;28;20328;-85
2021/05/12 06:26:21;;;;;;;;;;;;;;;21.00;49.97;92522.41;5112494;28;19923;-85
2021/05/12 06:28:49;;;;;;;;;;;;;;;21.24;48.55;92519.59;5112389;28;19942;-85
2021/05/12 06:31:15;;;;;;;;;;;;;;;21.43;48.42;92506.38;5112269;28;19923;-85
2021/05/12 06:33:44;;;;;;;;;;;;;;;21.71;47.35;92516.78;5112383;28;19965;-84
2021/05/12 06:36:10;;;;;;;;;;;;;;;21.93;46.58;92517.09;5112227;28;19919;-85
2021/05/12 06:38:36;;;;;;;;;;;;;;;22.20;46.46;92518.78;5112676;28;19927;-84
2021/05/12 06:41:03;;;;;;;;;;;;;;;22.47;45.18;92514.47;5112358;28;20283;-85
2021/05/12 06:43:29;;;;;;;;;;;;;;;22.54;45.04;92514.06;5112534;28;19943;-87
2021/05/12 06:45:56;;;;;;;;;;;;;;;22.82;44.45;92519.84;5113003;28;20298;-86
2021/05/12 06:48:22;;;;;;;;;;;;;;;23.00;44.36;92529.63;5112682;28;19965;-85
2021/05/12 06:50:49;;;;;;;;;;;;;;;23.32;43.92;92520.63;5107377;28;19938;-86
2021/05/12 06:53:24;;;;;;;;;;;;;;;23.45;43.31;92518.94;5110826;28;19919;-84
2021/05/12 06:55:50;;;;;;;;;;;;;;;23.70;42.66;92519.25;5111323;28;19930;-85
2021/05/12 06:58:16;;;;;;;;;;;;;;;23.88;41.33;92522.63;5112491;28;20022;-86
2021/05/12 07:00:42;;;;;;;;;;;;;;;24.02;41.70;92526.94;5112210;28;20286;-84
2021/05/12 07:03:09;;;;;;;;;;;;;;;24.16;40.71;92529.41;5111737;28;19972;-84
2021/05/12 07:05:35;;;;;;;;;;;;;;;24.45;40.95;92521.94;5111816;28;20053;-86
2021/05/12 07:08:02;;;;;;;;;;;;;;;24.63;40.58;92520.03;5112280;28;19919;-85
2021/05/12 07:10:28;;;;;;;;;;;;;;;24.61;40.11;92514.31;5111738;28;19923;-83
2021/05/12 07:12:55;;;;;;;;;;;;;;;24.68;40.23;92515.38;5111964;28;19919;-87
2021/05/12 07:15:21;;;;;;;;;;;;;;;24.95;39.60;92510.06;5111795;28;20298;-87
2021/05/12 07:17:49;;;;;;;;;;;;;;;25.19;40.19;92512.06;5111540;28;20275;-85
2021/05/12 07:20:16;;;;;;;;;;;;;;;25.30;39.17;92514.31;5111680;28;20275;-86
2021/05/12 07:22:42;;;;;;;;;;;;;;;25.44;39.07;92511.44;5111719;28;19924;-87
2021/05/12 07:25:09;;;;;;;;;;;;;;;25.50;38.20;92504.91;5111587;28;19923;-86
2021/05/12 07:27:35;;;;;;;;;;;;;;;25.36;38.77;92497.25;5111392;28;19930;-86
2021/05/12 07:30:01;;;;;;;;;;;;;;;25.44;38.43;92496.44;5111560;28;19923;-87
2021/05/12 07:32:27;;;;;;;;;;;;;;;25.60;39.17;92499.28;5111289;28;19924;-86
2021/05/12 07:34:53;;;;;;;;;;;;;;;25.67;38.28;92498.78;5111521;28;20293;-86
2021/05/12 07:37:20;;;;;;;;;;;;;;;25.83;37.81;92487.66;5111449;28;19930;-87
2021/05/12 07:39:46;;;;;;;;;;;;;;;25.82;38.34;92484.25;5111395;28;19920;-88
2021/05/12 07:42:14;;;;;;;;;;;;;;;25.86;38.73;92489.63;5111378;28;19927;-88
2021/05/12 07:44:40;;;;;;;;;;;;;;;25.93;38.24;92486.47;5111010;28;19920;-87
2021/05/12 07:47:06;;;;;;;;;;;;;;;25.85;38.24;92486.25;5111167;28;19968;-87
2021/05/12 07:49:32;;;;;;;;;;;;;;;25.80;38.03;92485.66;5110936;28;19941;-89
2021/05/12 07:51:58;;;;;;;;;;;;;;;25.67;38.00;92485.63;5110990;28;19920;-88
2021/05/12 07:54:25;;;;;;;;;;;;;;;25.46;38.25;92499.50;5111481;28;19924;-85
2021/05/12 07:56:51;;;;;;;;;;;;;;;25.08;38.63;92493.28;5110959;28;19920;-88
2021/05/12 07:59:18;;;;;;;;;;;;;;;24.75;39.82;92498.34;5110737;28;20018;-89
2021/05/12 08:01:45;;;;;;;;;;;;;;;24.65;40.30;92489.75;5111074;28;19923;-87
2021/05/12 08:04:11;;;;;;;;;;;;;;;24.52;40.09;92488.88;5110809;28;19928;-87
2021/05/12 08:06:38;;;;;;;;;;;;;;;24.42;40.15;92489.22;5110782;28;20282;-89
2021/05/12 08:09:05;;;;;;;;;;;;;;;24.41;40.67;92491.09;5110361;28;20006;-87
2021/05/12 08:11:32;;;;;;;;;;;;;;;24.39;40.64;92480.13;5110646;28;20359;-85
2021/05/12 08:13:58;;;;;;;;;;;;;;;24.51;40.74;92484.72;5110475;28;19923;-89
2021/05/12 08:16:25;;;;;;;;;;;;;;;24.36;40.95;92478.13;5110913;28;19920;-91
2021/05/12 08:18:51;;;;;;;;;;;;;;;24.32;41.34;92481.69;5111189;28;19963;-87
2021/05/12 08:21:18;;;;;;;;;;;;;;;24.02;41.09;92475.25;5111169;28;19919;-89
2021/05/12 08:23:44;;;;;;;;;;;;;;;24.13;41.56;92475.72;5111011;28;19965;-88
2021/05/12 08:26:10;;;;;;;;;;;;;;;24.34;41.12;92469.03;5111108;28;19924;-88
2021/05/12 08:28:38;;;;;;;;;;;;;;;24.43;41.15;92475.00;5110279;28;19971;-87
2021/05/12 08:31:05;;;;;;;;;;;;;;;24.38;40.91;92473.34;5110426;28;19919;-87
2021/05/12 08:33:31;;;;;;;;;;;;;;;24.43;40.13;92459.25;5110254;28;19953;-87
2021/05/12 08:35:57;;;;;;;;;;;;;;;24.39;41.42;92458.38;5110090;28;20393;-90
2021/05/12 08:38:25;;;;;;;;;;;;;;;24.50;41.13;92456.16;5110125;28;19919;-86
2021/05/12 08:40:53;;;;;;;;;;;;;;;24.59;40.78;92448.22;5110040;28;19920;-87
2021/05/12 08:43:19;;;;;;;;;;;;;;;24.53;40.29;92450.28;5110120;28;20367;-87
2021/05/12 08:45:47;;;;;;;;;;;;;;;24.57;40.84;92445.91;5110017;28;20333;-87
2021/05/12 08:48:15;;;;;;;;;;;;;;;24.68;40.77;92438.47;5110746;28;19919;-87
2021/05/12 08:50:41;;;;;;;;;;;;;;;24.93;40.34;92441.28;5110584;28;19920;-89
2021/05/12 08:53:07;;;;;;;;;;;;;;;24.90;39.75;92444.56;5110556;28;19923;-87
2021/05/12 08:55:33;;;;;;;;;;;;;;;25.02;39.84;92444.63;5110494;28;19924;-88
2021/05/12 08:57:59;;;;;;;;;;;;;;;24.79;39.98;92438.84;5104801;28;19923;-87
2021/05/12 09:00:26;;;;;;;;;;;;;;;24.71;40.27;92442.31;5108841;28;19920;-88
2021/05/12 09:02:53;;;;;;;;;;;;;;;24.63;40.73;92443.91;5110584;28;19924;-87
2021/05/12 09:05:19;;;;;;;;;;;;;;;24.65;40.67;92439.88;5110122;28;19923;-87
2021/05/12 09:07:46;;;;;;;;;;;;;;;24.63;40.00;92442.03;5110023;28;20431;-86
2021/05/12 09:10:12;;;;;;;;;;;;;;;24.73;40.65;92434.88;5109453;28;19920;-86
2021/05/12 09:12:42;;;;;;;;;;;;;;;24.72;40.45;92434.13;5110278;28;20286;-86
2021/05/12 09:15:08;;;;;;;;;;;;;;;24.75;39.13;92433.47;5109512;28;19930;-87
2021/05/12 09:17:38;;;;;;;;;;;;;;;24.76;39.75;92426.38;5109830;28;19923;-86
2021/05/12 09:20:25;;;;;;;;;;;;;;;24.98;39.83;92422.72;5113162;28;20018;-86
2021/05/12 09:23:06;;;;;;;;;;;;;;;25.08;39.97;92413.66;5113740;28;20336;-86
2021/05/12 09:25:33;;;;;;;;;;;;;;;25.27;39.81;92409.84;5114141;28;19924;-86
2021/05/12 09:28:08;;;;;;;;;;;;;;;25.39;39.37;92415.13;5113902;28;19920;-87
2021/05/12 09:30:36;;;;;;;;;;;;;;;25.67;39.34;92408.56;5113567;28;19923;-87
2021/05/12 09:33:02;;;;;;;;;;;;;;;25.94;38.01;92406.47;5113859;28;19928;-87
2021/05/12 09:35:29;;;;;;;;;;;;;;;26.10;37.94;92398.72;5113737;28;20010;-87
2021/05/12 09:37:55;;;;;;;;;;;;;;;26.17;38.43;92400.78;5113374;28;19919;-87
2021/05/12 09:40:23;;;;;;;;;;;;;;;26.23;38.25;92408.19;5113586;28;19924;-86
2021/05/12 09:42:55;;;;;;;;;;;;;;;26.11;38.27;92403.63;5112958;28;19943;-87
2021/05/12 09:45:22;;;;;;;;;;;;;;;26.17;38.36;92406.81;5113370;28;19926;-87
2021/05/12 09:47:49;;;;;;;;;;;;;;;26.23;38.31;92404.72;5113162;28;19977;-86
2021/05/12 09:50:19;;;;;;;;;;;;;;;26.12;38.57;92412.31;5096740;28;20379;-87
2021/05/12 09:52:46;;;;;;;;;;;;;;;25.95;39.25;92403.50;5113111;28;19923;-89
2021/05/12 09:55:13;;;;;;;;;;;;;;;25.92;39.50;92406.78;5113153;28;19927;-87
2021/05/12 09:57:54;;;;;;;;;;;;;;;25.83;39.63;92406.13;5113488;28;19924;-87
2021/05/12 10:00:25;;;;;;;;;;;;;;;25.70;40.02;92411.34;5112615;28;20279;-86
2021/05/12 10:02:51;;;;;;;;;;;;;;;25.39;40.00;92411.72;5113121;28;20379;-88
2021/05/12 10:05:17;;;;;;;;;;;;;;;25.30;40.37;92406.56;5113435;28;19919;-88
2021/05/12 10:07:51;;;;;;;;;;;;;;;25.28;40.76;92401.63;5113085;28;19969;-87
2021/05/12 10:10:31;;;;;;;;;;;;;;;25.38;40.19;92391.78;5113102;28;19920;-86
2021/05/12 10:12:57;;;;;;;;;;;;;;;25.08;40.82;92392.66;5112557;28;20763;-86
2021/05/12 10:15:23;;;;;;;;;;;;;;;25.15;40.38;92397.41;5112863;28;19923;-87
2021/05/12 10:17:49;;;;;;;;;;;;;;;25.02;40.85;92393.94;5112808;28;19920;-86
2021/05/12 10:20:16;;;;;;;;;;;;;;;25.15;40.76;92397.41;5112607;28;20060;-86
2021/05/12 10:22:42;;;;;;;;;;;;;;;25.40;41.03;92392.25;5112969;28;19927;-87
2021/05/12 10:25:10;;;;;;;;;;;;;;;25.48;39.98;92389.56;5113429;28;19931;-86
2021/05/12 10:27:36;;;;;;;;;;;;;;;25.46;40.41;92378.56;5113154;28;19923;-85
2021/05/12 10:30:03;;;;;;;;;;;;;;;25.61;40.69;92382.47;5112254;28;19950;-86
2021/05/12 10:32:31;;;;;;;;;;;;;;;25.73;39.39;92373.88;5112755;28;19920;-86
2021/05/12 10:35:03;;;;;;;;;;;;;;;25.70;39.76;92371.91;5112660;28;20303;-86
2021/05/12 10:37:30;;;;;;;;;;;;;;;25.71;39.52;92367.38;5112381;28;19981;-88
2021/05/12 10:39:59;;;;;;;;;;;;;;;26.06;40.13;92369.63;5112617;28;19930;-88
2021/05/12 10:42:44;;;;;;;;;;;;;;;26.24;38.75;92367.59;5112401;28;19926;-88
2021/05/12 10:45:13;;;;;;;;;;;;;;;26.10;39.45;92367.13;5112234;28;19920;-87
2021/05/12 10:47:40;;;;;;;;;;;;;;;26.24;39.53;92359.69;5112081;28;20374;-88
2021/05/12 10:50:07;;;;;;;;;;;;;;;26.24;39.07;92358.94;5112273;28;19966;-87
2021/05/12 10:52:33;;;;;;;;;;;;;;;26.02;38.81;92360.88;5112245;28;20092;-88
2021/05/12 10:54:59;;;;;;;;;;;;;;;26.13;39.31;92356.72;5112480;28;19920;-89
2021/05/12 10:57:45;;;;;;;;;;;;;;;26.23;39.05;92358.16;5112436;28;19954;-87
2021/05/12 11:00:13;;;;;;;;;;;;;;;26.43;38.54;92350.50;5112036;28;19927;-87
2021/05/12 11:03:04;;;;;;;;;;;;;;;26.73;38.52;92352.06;5111918;28;19920;-86
2021/05/12 11:05:40;;;;;;;;;;;;;;;27.07;37.47;92345.56;5111995;28;19931;-88
2021/05/12 11:08:13;;;;;;;;;;;;;;;27.07;37.46;92336.88;5112088;28;19923;-88
2021/05/12 11:10:49;;;;;;;;;;;;;;;27.17;37.62;92338.28;5112060;28;19977;-87
2021/05/12 11:13:19;;;;;;;;;;;;;;;27.07;37.17;92332.38;5111738;28;19930;-88
2021/05/12 11:15:50;;;;;;;;;;;;;;;27.23;37.01;92320.34;5112527;28;19920;-88
2021/05/12 11:18:31;;;;;;;;;;;;;;;27.16;37.88;92323.56;5113130;28;19920;-88
2021/05/12 11:21:12;;;;;;;;;;;;;;;27.16;37.54;92321.69;5112240;28;19920;-87
2021/05/12 11:23:59;;;;;;;;;;;;;;;27.39;37.47;92323.78;5111422;28;20401;-87
2021/05/12 11:26:41;;;;;;;;;;;;;;;27.73;37.14;92316.34;5111595;28;19923;-87
2021/05/12 11:31:08;;;;;;;;;;;;;;;27.60;36.55;92301.72;5111492;28;20546;-86
2021/05/12 11:31:55;;;;;;;;;;;;;;;27.69;36.32;92299.69;5111230;28;20404;-87
2021/05/12 11:34:21;;;;;;;;;;;;;;;27.67;36.29;92288.69;5111598;28;19920;-87
2021/05/12 11:36:47;;;;;;;;;;;;;;;27.83;36.34;92285.28;5111362;28;19923;-85
2021/05/12 11:39:13;;;;;;;;;;;;;;;27.86;36.38;92288.03;5111174;28;19924;-87
2021/05/12 11:41:40;;;;;;;;;;;;;;;27.69;36.67;92286.50;5110810;28;19920;-86
2021/05/12 11:44:06;;;;;;;;;;;;;;;27.70;36.12;92282.75;5111284;28;19924;-87
2021/05/12 11:46:33;;;;;;;;;;;;;;;27.67;36.85;92285.31;5111181;28;20374;-87
2021/05/12 11:49:02;;;;;;;;;;;;;;;27.55;36.37;92281.63;5111336;28;19985;-87
2021/05/12 11:51:33;;;;;;;;;;;;;;;27.50;35.84;92278.44;5110600;28;19923;-87
2021/05/12 11:53:59;;;;;;;;;;;;;;;27.46;36.52;92271.22;5109550;28;19924;-87
2021/05/12 11:56:26;;;;;;;;;;;;;;;27.41;36.39;92271.47;5111184;28;19919;-87
2021/05/12 11:58:55;;;;;;;;;;;;;;;27.48;35.93;92265.59;5110996;28;20531;-87
2021/05/12 12:01:21;;;;;;;;;;;;;;;27.65;35.10;92263.75;5110290;28;19924;-87
2021/05/12 12:04:00;;;;;;;;;;;;;;;27.60;35.07;92260.25;5099732;28;20350;-87
2021/05/12 12:06:27;;;;;;;;;;;;;;;27.63;35.65;92255.44;5099164;28;20007;-89
2021/05/12 12:08:53;;;;;;;;;;;;;;;27.56;35.47;92254.13;5099931;28;19920;-91
2021/05/12 12:11:19;;;;;;;;;;;;;;;27.47;35.56;92242.97;5101336;28;19970;-88
2021/05/12 12:13:47;;;;;;;;;;;;;;;27.40;36.02;92240.91;5098124;28;19920;-87
2021/05/12 12:16:13;;;;;;;;;;;;;;;27.41;36.20;92231.94;5098272;28;19970;-87
2021/05/12 12:18:40;;;;;;;;;;;;;;;27.32;36.09;92229.44;5101732;28;19919;-89
2021/05/12 12:21:06;;;;;;;;;;;;;;;27.25;35.89;92217.97;5100671;28;20356;-88
2021/05/12 12:23:34;;;;;;;;;;;;;;;26.93;35.92;92221.28;5100441;28;19920;-90
2021/05/12 12:26:13;;;;;;;;;;;;;;;26.80;35.91;92223.97;5098489;28;19926;-90
2021/05/12 12:28:39;;;;;;;;;;;;;;;26.68;36.45;92219.53;5100402;28;19927;-88
2021/05/12 12:31:08;;;;;;;;;;;;;;;26.68;37.18;92216.13;5098303;28;19924;-88
2021/05/12 12:33:34;;;;;;;;;;;;;;;26.72;36.82;92216.22;5099056;28;20022;-88
2021/05/12 12:36:04;;;;;;;;;;;;;;;26.69;36.42;92209.75;5100395;28;19920;-90
2021/05/12 12:38:32;;;;;;;;;;;;;;;26.69;36.48;92215.00;5098410;28;19920;-89
2021/05/12 12:40:59;;;;;;;;;;;;;;;26.69;36.60;92225.53;5098410;28;20322;-88
2021/05/12 12:43:36;;;;;;;;;;;;;;;26.59;36.53;92218.91;5091937;28;19970;-88
2021/05/12 12:46:02;;;;;;;;;;;;;;;26.48;36.67;92225.75;5108392;28;20297;-90
2021/05/12 12:48:28;;;;;;;;;;;;;;;26.34;36.88;92231.38;5109956;28;20425;-88
2021/05/12 12:50:54;;;;;;;;;;;;;;;26.20;36.80;92237.72;5109945;28;19920;-89